Time;durP1;ratioP1;P1;durP2;ratioP2;P2;SDS_P1;SDS_P2;PMS_P1;PMS_P2;Temp;Humidity;BMP_temperature;BMP_pressure;BME280_temperature;BME280_humidity;BME280_pressure;Samples;Min_cycle;Max_cycle;Signal;HPM_P1;HPM_P2
2022/03/24 00:02:47;;;;;;;25.17;20.88;;;;;;;11.82;37.73;101328.19;10360941;28;20045;-60
2022/03/24 00:07:49;;;;;;;22.48;19.85;;;;;;;11.57;37.85;101319.19;10355800;28;20041;-60
2022/03/24 00:12:51;;;;;;;23.33;20.52;;;;;;;11.43;38.28;101333.44;10353766;28;20049;-61
2022/03/24 00:17:53;;;;;;;29.02;23.50;;;;;;;11.27;39.18;101338.09;10358878;28;20052;-59
2022/03/24 00:22:54;;;;;;;27.40;21.63;;;;;;;11.11;39.62;101338.28;10354833;28;20084;-62
2022/03/24 00:27:56;;;;;;;20.60;18.38;;;;;;;10.96;39.79;101335.63;10355238;28;20105;-62
2022/03/24 00:32:57;;;;;;;20.50;17.92;;;;;;;10.80;39.67;101324.25;10352583;28;20054;-61
2022/03/24 00:37:59;;;;;;;19.08;17.08;;;;;;;10.75;39.45;101329.03;10356164;28;20052;-61
2022/03/24 00:43:01;;;;;;;20.10;16.70;;;;;;;10.74;39.43;101332.66;10356888;28;20504;-61
2022/03/24 00:48:03;;;;;;;19.13;15.68;;;;;;;10.73;39.43;101330.94;10354805;28;20519;-61
2022/03/24 00:53:04;;;;;;;16.88;15.05;;;;;;;10.70;38.93;101326.66;10349674;28;20471;-60
2022/03/24 00:58:06;;;;;;;18.00;16.08;;;;;;;10.60;38.62;101321.06;10352223;28;20068;-60
2022/03/24 01:03:07;;;;;;;20.17;16.58;;;;;;;10.54;39.46;101313.47;10354163;28;20096;-61
2022/03/24 01:08:09;;;;;;;20.00;17.27;;;;;;;10.43;39.43;101311.50;10353978;28;20428;-61
2022/03/24 01:13:11;;;;;;;18.30;16.40;;;;;;;10.42;39.95;101315.09;10355581;28;20164;-61
2022/03/24 01:18:14;;;;;;;20.38;18.17;;;;;;;10.36;40.06;101310.16;10353160;28;20057;-61
2022/03/24 01:23:15;;;;;;;22.77;18.67;;;;;;;10.26;40.29;101312.50;10354582;28;20042;-61
2022/03/24 01:28:17;;;;;;;22.20;17.90;;;;;;;10.17;40.60;101305.09;10351856;28;20038;-61
2022/03/24 01:33:18;;;;;;;21.67;18.52;;;;;;;10.03;40.86;101290.00;10355113;28;20042;-61
2022/03/24 01:38:22;;;;;;;20.05;17.58;;;;;;;10.05;41.15;101293.41;10356071;28;20543;-61
2022/03/24 01:43:24;;;;;;;21.23;17.53;;;;;;;10.10;41.12;101306.41;10353955;28;20053;-61
2022/03/24 01:48:26;;;;;;;18.67;16.65;;;;;;;10.03;41.21;101283.84;10345241;28;20508;-62
2022/03/24 01:53:28;;;;;;;19.75;17.13;;;;;;;9.93;41.07;101282.69;10345199;28;20567;-63
2022/03/24 01:58:30;;;;;;;20.35;16.80;;;;;;;9.76;41.79;101286.34;10347868;28;20500;-61
2022/03/24 02:03:32;;;;;;;21.20;17.52;;;;;;;9.76;42.20;101299.66;10345788;28;20510;-62
2022/03/24 02:08:34;;;;;;;19.80;16.75;;;;;;;9.71;41.78;101284.84;10355003;28;20041;-62
2022/03/24 02:13:37;;;;;;;19.63;16.52;;;;;;;9.70;41.67;101290.25;10359532;28;20287;-62
2022/03/24 02:18:38;;;;;;;18.15;16.20;;;;;;;9.69;41.49;101293.84;10368427;28;20118;-61
2022/03/24 02:23:40;;;;;;;18.20;14.75;;;;;;;9.57;41.67;101289.28;10370135;28;20081;-60
2022/03/24 02:28:45;;;;;;;16.27;14.55;;;;;;;9.52;41.75;101294.88;10364177;28;20045;-62
2022/03/24 02:33:47;;;;;;;16.40;14.68;;;;;;;9.48;41.78;101285.38;10361969;28;20037;-60
2022/03/24 02:38:48;;;;;;;17.63;15.85;;;;;;;9.45;42.22;101283.75;10362086;28;20067;-61
2022/03/24 02:43:50;;;;;;;16.90;15.10;;;;;;;9.29;42.53;101282.94;10365626;28;20129;-61
2022/03/24 02:48:51;;;;;;;17.10;14.50;;;;;;;9.29;42.16;101288.25;10364710;28;20053;-61
2022/03/24 02:53:53;;;;;;;16.40;14.57;;;;;;;9.27;42.31;101288.34;10363819;28;20050;-61
2022/03/24 02:58:54;;;;;;;19.33;14.07;;;;;;;9.05;42.92;101286.06;10361769;28;20505;-61
2022/03/24 03:03:56;;;;;;;16.77;14.27;;;;;;;9.06;43.24;101297.56;10362989;28;20060;-61
2022/03/24 03:09:01;;;;;;;19.35;15.23;;;;;;;8.99;43.26;101305.00;10362173;28;20529;-61
2022/03/24 03:14:03;;;;;;;15.93;14.23;;;;;;;8.95;43.21;101292.88;10361015;28;20725;-61
2022/03/24 03:19:06;;;;;;;15.40;13.80;;;;;;;8.93;43.44;101305.34;10356977;28;20053;-61
2022/03/24 03:24:10;;;;;;;16.83;14.85;;;;;;;8.95;43.46;101303.50;10354468;28;20058;-62
2022/03/24 03:29:13;;;;;;;16.98;15.27;;;;;;;9.01;43.12;101308.44;10353831;28;20052;-61
2022/03/24 03:34:15;;;;;;;18.27;15.00;;;;;;;8.87;43.21;101316.34;10355279;28;20060;-62
2022/03/24 03:39:16;;;;;;;16.10;14.45;;;;;;;8.80;43.58;101295.44;10355773;28;20056;-60
2022/03/24 03:44:19;;;;;;;19.85;15.20;;;;;;;8.90;44.17;101322.31;10356283;28;20050;-62
2022/03/24 03:49:21;;;;;;;16.15;14.13;;;;;;;8.70;44.07;101302.22;10354970;28;20050;-61
2022/03/24 03:54:28;;;;;;;16.75;14.98;;;;;;;8.53;44.92;101307.59;10358593;28;20164;-61
2022/03/24 03:59:30;;;;;;;17.40;15.60;;;;;;;8.43;45.06;101316.03;10358896;28;20046;-61
2022/03/24 04:04:31;;;;;;;18.65;16.27;;;;;;;8.34;45.33;101303.25;10360391;28;20046;-61
2022/03/24 04:09:33;;;;;;;19.50;16.17;;;;;;;8.35;45.54;101310.28;10360415;28;20564;-61
2022/03/24 04:14:34;;;;;;;19.73;15.60;;;;;;;8.35;45.78;101304.09;10361627;28;20056;-61
2022/03/24 04:19:35;;;;;;;20.60;17.80;;;;;;;8.37;45.93;101313.72;10354613;28;20049;-61
2022/03/24 04:24:37;;;;;;;20.42;16.75;;;;;;;8.10;46.60;101303.63;10357982;28;20492;-61
2022/03/24 04:29:38;;;;;;;18.83;16.77;;;;;;;8.26;46.49;101305.50;10349743;28;20076;-61
2022/03/24 04:34:40;;;;;;;19.15;17.15;;;;;;;8.26;46.38;101310.78;10356990;28;20132;-61
2022/03/24 04:39:41;;;;;;;20.95;16.90;;;;;;;8.38;46.30;101319.88;10351481;28;20128;-61
2022/03/24 04:44:43;;;;;;;19.80;16.58;;;;;;;8.32;46.88;101321.91;10353423;28;20441;-61
2022/03/24 04:49:44;;;;;;;19.70;17.60;;;;;;;8.34;46.73;101323.63;10358832;28;20224;-61
2022/03/24 04:54:46;;;;;;;20.13;18.05;;;;;;;8.17;46.85;101305.97;10360964;28;20053;-60
2022/03/24 04:59:47;;;;;;;21.20;17.95;;;;;;;8.25;47.29;101325.00;10362167;28;20076;-61
2022/03/24 05:04:48;;;;;;;26.05;19.05;;;;;;;8.29;46.77;101331.84;10356882;28;20144;-62
2022/03/24 05:09:50;;;;;;;22.60;17.67;;;;;;;8.13;47.21;101332.66;10361223;28;20050;-61
2022/03/24 05:14:51;;;;;;;19.25;17.13;;;;;;;7.98;47.84;101330.81;10370664;28;20045;-61
2022/03/24 05:19:53;;;;;;;23.80;16.30;;;;;;;7.91;48.04;101326.75;10378009;28;20072;-60
2022/03/24 05:24:54;;;;;;;20.77;17.85;;;;;;;7.80;47.93;101329.97;10360364;28;20428;-64
2022/03/24 05:29:56;;;;;;;20.65;17.45;;;;;;;7.74;47.81;101336.44;10352367;28;20050;-60
2022/03/24 05:34:57;;;;;;;21.75;18.27;;;;;;;7.65;48.05;101350.16;10357674;28;20050;-61
2022/03/24 05:39:58;;;;;;;21.58;18.90;;;;;;;7.72;48.31;101348.09;10333989;28;20072;-61
2022/03/24 05:45:00;;;;;;;24.20;18.67;;;;;;;7.67;48.39;101350.97;10343049;28;20524;-61
2022/03/24 05:50:02;;;;;;;21.40;17.30;;;;;;;7.57;48.05;101339.13;10339778;28;20050;-61
2022/03/24 05:55:04;;;;;;;20.15;15.40;;;;;;;7.81;47.61;101352.03;10343767;28;20862;-61
2022/03/24 06:00:06;;;;;;;20.67;15.45;;;;;;;7.91;47.42;101354.16;10344473;28;20055;-61
2022/03/24 06:05:09;;;;;;;15.23;13.63;;;;;;;7.74;47.01;101346.19;10336395;28;20106;-61
2022/03/24 06:10:11;;;;;;;14.82;13.40;;;;;;;7.76;46.37;101361.09;10341696;28;20056;-61
2022/03/24 06:15:12;;;;;;;20.10;14.95;;;;;;;7.77;46.37;101367.25;10343050;28;20901;-61
2022/03/24 06:20:14;;;;;;;19.45;14.50;;;;;;;7.93;45.95;101364.69;10341702;28;20049;-61
2022/03/24 06:25:15;;;;;;;15.77;14.15;;;;;;;8.03;45.65;101357.97;10342032;28;20054;-60
2022/03/24 06:30:17;;;;;;;16.15;13.93;;;;;;;8.14;45.53;101370.66;10339693;28;20053;-62
2022/03/24 06:35:19;;;;;;;15.50;13.40;;;;;;;8.41;45.27;101378.94;10345407;28;20133;-64
2022/03/24 06:40:20;;;;;;;17.20;14.05;;;;;;;8.57;44.46;101383.44;10338324;28;20542;-63
2022/03/24 06:45:22;;;;;;;15.30;13.85;;;;;;;8.68;43.71;101373.13;10338937;28;20140;-60
2022/03/24 06:50:24;;;;;;;18.65;13.75;;;;;;;8.79;43.95;101378.69;10343111;28;21464;-62
2022/03/24 06:55:25;;;;;;;15.00;13.30;;;;;;;8.92;43.37;101376.22;10349179;28;20415;-63
2022/03/24 07:00:27;;;;;;;16.95;13.45;;;;;;;9.11;42.84;101373.41;10343379;28;20152;-60
2022/03/24 07:05:28;;;;;;;15.05;13.07;;;;;;;9.35;42.92;101367.59;10342781;28;20157;-61
2022/03/24 07:10:30;;;;;;;18.63;15.07;;;;;;;9.47;42.87;101374.88;10343886;28;20504;-60
2022/03/24 07:15:33;;;;;;;17.67;14.82;;;;;;;9.43;42.65;101346.78;10347404;28;20071;-60
2022/03/24 07:20:36;;;;;;;19.02;15.60;;;;;;;9.84;41.63;101379.84;10346627;28;20054;-60
2022/03/24 07:25:37;;;;;;;16.08;14.32;;;;;;;9.96;41.53;101371.13;10348519;28;20147;-60
2022/03/24 07:30:39;;;;;;;18.00;13.52;;;;;;;9.98;40.38;101379.00;10343443;28;21182;-60
2022/03/24 07:35:40;;;;;;;19.98;14.95;;;;;;;9.94;41.00;101382.78;10343014;28;20065;-60
2022/03/24 07:40:42;;;;;;;16.35;14.63;;;;;;;10.13;39.97;101378.06;10343400;28;20053;-61
2022/03/24 07:45:43;;;;;;;19.40;15.82;;;;;;;10.37;39.69;101374.91;10340120;28;20056;-60
2022/03/24 07:50:46;;;;;;;20.95;14.85;;;;;;;10.63;39.52;101383.94;10342792;28;20140;-61
2022/03/24 07:55:48;;;;;;;17.35;15.18;;;;;;;10.76;39.69;101376.00;10339565;28;20057;-60
2022/03/24 08:00:49;;;;;;;19.80;16.10;;;;;;;10.81;39.32;101336.63;10341422;28;20128;-59
2022/03/24 08:05:52;;;;;;;23.88;17.30;;;;;;;11.33;39.23;101385.66;10345352;28;20054;-60
2022/03/24 08:10:54;;;;;;;19.75;15.13;;;;;;;11.67;38.67;101378.94;10345167;28;20151;-60
2022/03/24 08:15:56;;;;;;;20.27;16.73;;;;;;;11.87;38.45;101395.41;10341450;28;20050;-59
2022/03/24 08:20:58;;;;;;;20.92;16.80;;;;;;;12.19;37.85;101379.91;10342811;28;20049;-59
2022/03/24 08:26:00;;;;;;;18.83;16.83;;;;;;;12.33;37.37;101370.94;10346548;28;20100;-59
2022/03/24 08:31:01;;;;;;;19.75;17.35;;;;;;;12.70;36.82;101373.66;10342029;28;20046;-58
2022/03/24 08:36:03;;;;;;;19.15;16.02;;;;;;;13.25;36.06;101383.97;10344450;28;20416;-60
2022/03/24 08:41:04;;;;;;;18.50;15.75;;;;;;;13.58;35.61;101380.63;10341035;28;20042;-59
2022/03/24 08:46:08;;;;;;;22.98;17.10;;;;;;;13.97;34.77;101375.03;10341621;28;20062;-60
2022/03/24 08:51:11;;;;;;;21.85;16.48;;;;;;;14.39;34.25;101372.66;10339303;28;20053;-59
2022/03/24 08:56:13;;;;;;;19.80;17.23;;;;;;;14.47;33.73;101367.56;10342126;28;20053;-58
2022/03/24 09:01:14;;;;;;;19.85;17.75;;;;;;;15.05;32.65;101377.25;10344790;28;20080;-59
2022/03/24 09:06:16;;;;;;;23.95;18.60;;;;;;;15.52;32.34;101377.84;10338200;28;20111;-58
2022/03/24 09:11:18;;;;;;;18.67;16.83;;;;;;;15.64;32.06;101372.44;10333555;28;20053;-60
2022/03/24 09:16:19;;;;;;;21.10;17.70;;;;;;;16.03;31.13;101370.03;10336005;28;20128;-60
2022/03/24 09:21:21;;;;;;;22.67;18.58;;;;;;;16.64;30.57;101373.75;10330681;28;20072;-61
2022/03/24 09:26:23;;;;;;;23.75;18.75;;;;;;;17.09;29.26;101389.47;10337803;28;20140;-62
2022/03/24 09:31:31;;;;;;;25.63;20.67;;;;;;;17.30;29.11;101384.81;10341089;28;20056;-61
2022/03/24 09:36:32;;;;;;;23.20;18.20;;;;;;;17.63;28.95;101363.88;10341276;28;20211;-60
2022/03/24 09:41:35;;;;;;;24.58;19.67;;;;;;;18.10;28.25;101375.75;10341164;28;20160;-60
2022/03/24 09:46:36;;;;;;;24.60;21.02;;;;;;;18.63;27.02;101367.06;10340576;28;20440;-60
2022/03/24 09:51:42;;;;;;;23.05;19.88;;;;;;;19.13;26.47;101367.66;10344452;28;20740;-60
2022/03/24 09:56:43;;;;;;;23.63;21.10;;;;;;;19.17;26.27;101369.03;10346615;28;20790;-61
2022/03/24 10:01:45;;;;;;;24.38;21.55;;;;;;;19.69;25.83;101368.34;10339125;28;20788;-60
2022/03/24 10:07:00;;;;;;;24.83;19.83;;;;;;;20.59;24.74;101365.38;10341441;28;20163;-59
2022/03/24 10:12:04;;;;;;;24.20;21.08;;;;;;;21.27;23.65;101353.63;10339746;28;20057;-60
2022/03/24 10:17:07;;;;;;;23.83;21.25;;;;;;;23.21;21.31;101352.69;10339956;28;20054;-65
2022/03/24 10:22:11;;;;;;;23.45;20.50;;;;;;;27.35;17.31;101349.81;10352608;28;20056;-58
2022/03/24 10:27:20;;;;;;;24.58;22.08;;;;;;;29.00;15.67;101346.16;10348854;28;20064;-60
2022/03/24 10:32:31;;;;;;;24.13;21.60;;;;;;;28.89;15.16;101336.72;10346352;28;20056;-59
2022/03/24 10:37:33;;;;;;;24.65;22.13;;;;;;;27.23;16.70;101322.25;10344662;28;20111;-59
2022/03/24 10:42:41;;;;;;;24.98;22.30;;;;;;;26.98;16.91;101338.41;10343444;28;20635;-60
2022/03/24 10:47:56;;;;;;;23.80;21.40;;;;;;;28.03;16.13;101337.88;10341951;28;20054;-59
2022/03/24 10:53:01;;;;;;;26.23;22.50;;;;;;;31.82;13.24;101325.41;10347669;28;20046;-60
2022/03/24 10:58:09;;;;;;;25.17;22.27;;;;;;;34.63;11.47;101326.25;10344994;28;20049;-61
2022/03/24 11:03:11;;;;;;;24.02;21.77;;;;;;;35.62;10.44;101312.25;10343844;28;20760;-62
2022/03/24 11:08:19;;;;;;;24.92;22.63;;;;;;;36.82;9.68;101327.28;10342613;28;20060;-60
2022/03/24 11:13:40;;;;;;;25.88;23.35;;;;;;;38.18;9.35;101319.47;10341255;28;20057;-61
2022/03/24 11:18:41;;;;;;;22.90;20.80;;;;;;;39.10;8.25;101311.72;10345032;28;20055;-61
2022/03/24 11:23:45;;;;;;;24.92;22.67;;;;;;;39.30;8.28;101288.44;10342989;28;20076;-62
2022/03/24 11:28:49;;;;;;;23.17;21.05;;;;;;;40.12;7.89;101299.56;10343070;28;20107;-60
2022/03/24 11:33:54;;;;;;;25.58;23.27;;;;;;;40.69;7.77;101306.34;10339101;28;20052;-61
2022/03/24 11:39:02;;;;;;;23.38;21.08;;;;;;;40.71;7.24;101298.50;10340366;28;20461;-62
2022/03/24 11:44:36;;;;;;;24.20;22.10;;;;;;;41.74;6.72;101263.25;10346499;28;20057;-62
2022/03/24 11:49:37;;;;;;;23.90;21.77;;;;;;;43.07;6.64;101271.47;10337798;28;20063;-62
2022/03/24 11:54:48;;;;;;;23.20;20.85;;;;;;;42.55;6.29;101266.25;10338666;28;20057;-61
2022/03/24 12:00:10;;;;;;;22.70;20.83;;;;;;;42.26;6.47;101254.63;10336799;28;20056;-62
2022/03/24 12:05:13;;;;;;;23.92;21.83;;;;;;;42.27;6.15;101254.31;10336227;28;20048;-61
2022/03/24 12:10:30;;;;;;;24.08;21.85;;;;;;;42.21;6.13;101244.41;10339609;28;20686;-63
2022/03/24 12:15:31;;;;;;;23.13;21.02;;;;;;;42.80;6.06;101230.41;10337169;28;20049;-62
2022/03/24 12:20:44;;;;;;;23.92;21.88;;;;;;;42.57;5.71;101208.00;10335179;28;20500;-64
2022/03/24 12:26:05;;;;;;;22.42;20.52;;;;;;;43.00;5.81;101223.50;10340732;28;20049;-62
2022/03/24 12:31:08;;;;;;;22.38;20.38;;;;;;;43.00;5.97;101219.84;10340559;28;20603;-62
2022/03/24 12:36:13;;;;;;;22.42;20.23;;;;;;;43.92;5.64;101216.47;10340509;28;20049;-62
2022/03/24 12:41:17;;;;;;;23.40;21.42;;;;;;;43.77;5.18;101209.31;10341878;28;20255;-63
2022/03/24 12:46:19;;;;;;;21.17;19.13;;;;;;;43.92;5.29;101194.88;10335641;28;20164;-65
2022/03/24 12:51:25;;;;;;;19.98;18.15;;;;;;;44.23;4.85;101204.31;10341913;28;20057;-63
2022/03/24 12:56:31;;;;;;;20.83;18.73;;;;;;;44.25;4.53;101191.63;10345504;28;20293;-63
2022/03/24 13:01:34;;;;;;;20.38;18.42;;;;;;;44.24;4.87;101189.94;10340199;28;20054;-63
2022/03/24 13:06:40;;;;;;;21.92;18.23;;;;;;;44.88;4.60;101182.78;10341515;28;20053;-63
2022/03/24 13:11:54;;;;;;;18.95;17.30;;;;;;;44.02;4.51;101176.06;10337300;28;20053;-63
2022/03/24 13:17:01;;;;;;;18.98;17.48;;;;;;;43.33;5.00;101166.28;10336731;28;20073;-62
2022/03/24 13:22:09;;;;;;;20.23;18.45;;;;;;;42.18;5.61;101161.13;10337895;28;20053;-62
2022/03/24 13:27:10;;;;;;;19.35;17.58;;;;;;;42.78;5.45;101153.53;10338222;28;20066;-62
2022/03/24 13:32:17;;;;;;;19.63;17.88;;;;;;;42.33;5.48;101152.38;10341819;28;20057;-62
2022/03/24 13:37:21;;;;;;;18.58;16.98;;;;;;;41.36;6.22;101119.00;10339174;28;21157;-66
2022/03/24 13:42:24;;;;;;;19.13;17.17;;;;;;;37.75;7.45;101138.47;10339934;28;20062;-63
2022/03/24 13:47:27;;;;;;;19.75;17.85;;;;;;;34.28;9.69;101123.03;10337389;28;20349;-62
2022/03/24 13:52:30;;;;;;;18.52;16.73;;;;;;;32.63;10.77;101129.03;10334711;28;20057;-62
2022/03/24 13:57:41;;;;;;;20.30;18.25;;;;;;;31.70;11.39;101120.94;10338417;28;20137;-62
2022/03/24 14:02:43;;;;;;;20.08;18.17;;;;;;;30.82;11.39;101131.81;10341522;28;20055;-62
2022/03/24 14:07:59;;;;;;;20.48;18.58;;;;;;;29.89;12.38;101088.22;10338179;28;20498;-60
2022/03/24 14:13:00;;;;;;;19.95;17.80;;;;;;;29.55;12.39;101112.47;10333582;28;20085;-62
2022/03/24 14:18:22;;;;;;;19.67;17.83;;;;;;;28.84;13.13;101105.56;10336942;28;20144;-62
2022/03/24 14:23:33;;;;;;;21.03;18.90;;;;;;;28.31;13.12;101113.09;10337045;28;20784;-61
2022/03/24 14:28:41;;;;;;;20.42;18.50;;;;;;;27.73;13.62;101086.69;10338760;28;20136;-61
2022/03/24 14:33:46;;;;;;;21.60;19.38;;;;;;;27.12;13.72;101096.91;10335010;28;20045;-60
2022/03/24 14:39:12;;;;;;;22.33;20.02;;;;;;;26.40;14.22;101096.69;10334906;28;20052;-60
2022/03/24 14:44:19;;;;;;;22.13;19.83;;;;;;;25.72;15.05;101083.06;10335531;28;20045;-61
2022/03/24 14:49:20;;;;;;;22.25;20.05;;;;;;;25.31;15.16;101082.03;10332054;28;20080;-61
2022/03/24 14:54:22;;;;;;;22.92;20.52;;;;;;;25.19;15.28;101073.53;10333992;28;20051;-60
2022/03/24 14:59:24;;;;;;;21.35;19.23;;;;;;;24.91;15.57;101064.56;10331759;28;20248;-60
2022/03/24 15:04:25;;;;;;;23.77;20.90;;;;;;;24.57;15.74;101068.88;10334285;28;20060;-60
2022/03/24 15:09:27;;;;;;;24.63;21.08;;;;;;;24.17;15.89;101053.84;10339215;28;20763;-61
2022/03/24 15:19:48;;;;;;;23.17;20.75;;;;;;;23.19;17.96;101045.09;10343255;28;20093;-62
2022/03/24 15:24:51;;;;;;;31.55;21.85;;;;;;;22.90;18.49;101052.19;10341354;28;20050;-60
2022/03/24 15:29:53;;;;;;;24.20;21.77;;;;;;;23.07;17.77;101047.41;10339288;28;20049;-60
2022/03/24 15:34:54;;;;;;;24.87;22.10;;;;;;;22.60;18.03;101032.31;10341153;28;20072;-60
2022/03/24 15:39:56;;;;;;;23.15;20.73;;;;;;;22.33;18.49;101050.00;10337011;28;20049;-60
2022/03/24 15:44:57;;;;;;;24.05;20.70;;;;;;;22.40;18.25;101048.25;10338582;28;20451;-59
2022/03/24 15:49:59;;;;;;;24.38;20.33;;;;;;;22.28;17.49;101052.38;10334958;28;20104;-62
2022/03/24 15:55:00;;;;;;;22.33;19.25;;;;;;;22.13;17.13;101036.03;10344787;28;20074;-60
2022/03/24 16:00:04;;;;;;;22.65;18.45;;;;;;;21.83;16.39;101050.31;10343526;28;20393;-62
2022/03/24 16:05:07;;;;;;;21.10;16.70;;;;;;;21.95;16.13;101045.31;10343172;28;20200;-61
2022/03/24 16:10:13;;;;;;;;;;;;;;;21.84;16.37;101054.72;10345667;28;20572;-60
2022/03/24 16:15:15;;;;;;;18.02;16.08;;;;;;;21.67;16.27;101061.22;10341928;28;19955;-60
2022/03/24 16:20:16;;;;;;;20.67;17.92;;;;;;;21.30;16.31;101022.94;10340972;28;20238;-60
2022/03/24 16:25:18;;;;;;;20.55;17.73;;;;;;;21.38;16.34;101051.84;10341580;28;20076;-60
2022/03/24 16:30:19;;;;;;;23.70;19.98;;;;;;;21.11;18.25;101032.31;10338745;28;20050;-60
2022/03/24 16:35:21;;;;;;;27.27;24.20;;;;;;;21.00;20.46;101043.47;10343942;28;20063;-59
2022/03/24 16:40:23;;;;;;;63.72;26.70;;;;;;;20.80;21.35;101043.03;10344015;28;20441;-61
2022/03/24 16:45:25;;;;;;;37.78;24.73;;;;;;;20.70;21.61;101058.59;10341582;28;20059;-60
2022/03/24 16:50:27;;;;;;;31.83;24.63;;;;;;;20.57;22.08;101059.94;10336904;28;20050;-59
2022/03/24 16:55:33;;;;;;;34.28;23.55;;;;;;;20.31;22.31;101051.97;10338620;28;20057;-59
2022/03/24 17:00:34;;;;;;;29.30;23.58;;;;;;;20.19;22.29;101056.00;10341622;28;20121;-59
2022/03/24 17:05:37;;;;;;;25.48;22.70;;;;;;;20.14;22.84;101068.16;10339209;28;20103;-59
2022/03/24 17:10:39;;;;;;;29.42;23.33;;;;;;;20.00;22.99;101063.44;10353640;28;20145;-60
2022/03/24 17:15:41;;;;;;;26.40;22.30;;;;;;;19.85;23.27;101070.50;10336217;28;20061;-59
2022/03/24 17:20:43;;;;;;;27.53;24.10;;;;;;;19.73;23.50;101078.84;10339940;28;20107;-59
2022/03/24 17:25:45;;;;;;;29.35;24.38;;;;;;;19.59;23.90;101076.75;10338198;28;20049;-59
2022/03/24 17:30:46;;;;;;;25.77;22.15;;;;;;;19.40;24.21;101072.47;10340728;28;20064;-60
2022/03/24 17:35:48;;;;;;;28.55;23.30;;;;;;;19.23;24.76;101076.91;10337137;28;20707;-60
2022/03/24 17:40:49;;;;;;;32.75;24.23;;;;;;;19.05;25.22;101077.00;10340339;28;20627;-60
2022/03/24 17:45:50;;;;;;;28.77;22.45;;;;;;;18.86;25.53;101075.38;10333807;28;20050;-60
2022/03/24 17:50:53;;;;;;;25.10;22.40;;;;;;;18.70;25.85;101076.88;10330770;28;20061;-61
2022/03/24 17:55:54;;;;;;;26.42;22.90;;;;;;;18.57;26.04;101092.66;10339935;28;20057;-63
2022/03/24 18:00:56;;;;;;;29.42;24.38;;;;;;;18.45;26.16;101099.25;10339165;28;20045;-62
2022/03/24 18:05:58;;;;;;;29.42;24.10;;;;;;;18.26;26.16;101089.50;10339593;28;20172;-62
2022/03/24 18:11:00;;;;;;;26.40;23.25;;;;;;;18.09;26.66;101085.75;10346167;28;20057;-62
2022/03/24 18:16:02;;;;;;;31.58;24.48;;;;;;;17.82;26.68;101071.31;10341958;28;20049;-63
2022/03/24 18:21:06;;;;;;;30.02;24.15;;;;;;;17.90;26.97;101106.44;10342224;28;20111;-64
2022/03/24 18:26:07;;;;;;;;;;;;;;;17.85;27.13;101111.41;10346163;28;20056;-64
2022/03/24 18:31:09;;;;;;;31.90;25.02;;;;;;;17.62;27.96;101108.25;10337438;28;19929;-63
2022/03/24 18:36:11;;;;;;;29.20;23.98;;;;;;;17.63;28.23;101116.19;10341140;28;20050;-63
2022/03/24 18:41:12;;;;;;;30.15;26.73;;;;;;;17.57;28.06;101116.78;10341018;28;20514;-63
2022/03/24 18:46:14;;;;;;;31.38;26.77;;;;;;;17.30;28.44;101094.22;10344252;28;20064;-63
2022/03/24 18:51:17;;;;;;;33.47;27.55;;;;;;;17.32;28.69;101112.91;10346126;28;20060;-64
2022/03/24 18:56:20;;;;;;;32.38;26.63;;;;;;;17.24;29.13;101124.41;10348010;28;20659;-64
2022/03/24 19:01:22;;;;;;;35.15;25.98;;;;;;;17.18;29.55;101122.28;10343229;28;20144;-63
2022/03/24 19:06:24;;;;;;;33.55;27.00;;;;;;;17.04;29.82;101122.75;10345894;28;20064;-63
2022/03/24 19:11:27;;;;;;;33.03;27.90;;;;;;;16.75;29.72;101108.34;10348947;28;20298;-64
2022/03/24 19:16:29;;;;;;;32.63;25.63;;;;;;;16.74;29.19;101125.44;10346554;28;20067;-65
2022/03/24 19:21:31;;;;;;;28.20;22.92;;;;;;;16.58;28.44;101115.25;10348172;28;20054;-64
2022/03/24 19:26:33;;;;;;;24.55;20.90;;;;;;;16.54;27.26;101124.63;10346316;28;20199;-65
2022/03/24 19:31:35;;;;;;;23.70;21.00;;;;;;;16.45;26.89;101125.44;10346479;28;20053;-63
2022/03/24 19:36:37;;;;;;;25.50;20.77;;;;;;;16.32;26.89;101108.75;10351822;28;20152;-66
2022/03/24 19:41:43;;;;;;;26.20;21.95;;;;;;;16.27;27.26;101114.53;10348366;28;20614;-62
2022/03/24 19:46:44;;;;;;;31.40;22.45;;;;;;;16.21;27.18;101113.28;10346686;28;20056;-63
2022/03/24 19:51:46;;;;;;;25.75;22.55;;;;;;;16.24;27.30;101125.56;10344885;28;20515;-62
2022/03/24 19:56:48;;;;;;;30.13;23.00;;;;;;;16.16;27.39;101126.25;10346382;28;20053;-62
2022/03/24 20:01:49;;;;;;;27.10;23.20;;;;;;;15.99;27.61;101121.56;10342802;28;20080;-61
2022/03/24 20:06:51;;;;;;;26.80;23.10;;;;;;;16.00;27.88;101131.31;10346283;28;20057;-62
2022/03/24 20:11:54;;;;;;;29.02;24.02;;;;;;;15.86;28.23;101125.34;10340852;28;20050;-62
2022/03/24 20:16:56;;;;;;;31.55;24.00;;;;;;;15.71;28.60;101115.94;10345174;28;20718;-62
2022/03/24 20:21:57;;;;;;;31.50;23.63;;;;;;;15.69;28.62;101137.56;10343299;28;20053;-64
2022/03/24 20:26:59;;;;;;;31.92;23.88;;;;;;;15.55;28.84;101127.16;10342443;28;20063;-64
2022/03/24 20:32:01;;;;;;;32.25;23.48;;;;;;;15.54;28.86;101134.38;10343842;28;20226;-62
2022/03/24 20:37:04;;;;;;;26.63;22.42;;;;;;;15.47;28.70;101135.91;10348389;28;20073;-62
2022/03/24 20:42:06;;;;;;;26.52;21.77;;;;;;;15.47;28.90;101143.09;10342636;28;20060;-63
2022/03/24 20:47:07;;;;;;;28.52;22.95;;;;;;;15.44;28.62;101141.53;10346305;28;20558;-63
2022/03/24 20:52:12;;;;;;;25.13;21.05;;;;;;;15.32;28.74;101137.25;10340298;28;20042;-63
2022/03/24 20:57:14;;;;;;;25.33;21.08;;;;;;;15.30;28.44;101145.41;10344473;28;20134;-62
2022/03/24 21:02:15;;;;;;;28.23;21.08;;;;;;;15.19;28.66;101135.63;10347586;28;20072;-63
2022/03/24 21:07:17;;;;;;;27.15;21.85;;;;;;;15.11;28.73;101130.06;10343811;28;20699;-63
2022/03/24 21:12:19;;;;;;;26.95;21.80;;;;;;;15.15;28.66;101139.53;10340469;28;20311;-63
2022/03/24 21:17:20;;;;;;;28.35;20.25;;;;;;;15.12;28.36;101136.28;10341891;28;20053;-63
2022/03/24 21:22:23;;;;;;;24.80;21.02;;;;;;;14.91;28.58;101122.88;10339321;28;20714;-62
2022/03/24 21:27:25;;;;;;;26.02;21.13;;;;;;;15.01;28.73;101139.88;10335520;28;20084;-63
2022/03/24 21:32:27;;;;;;;27.23;20.20;;;;;;;15.05;29.08;101148.50;10342068;28;20325;-62
2022/03/24 21:37:28;;;;;;;26.20;21.13;;;;;;;15.02;29.94;101147.78;10343494;28;20045;-65
2022/03/24 21:42:29;;;;;;;27.50;20.77;;;;;;;14.97;28.98;101143.81;10333939;28;21853;-63
2022/03/24 21:47:31;;;;;;;27.90;21.67;;;;;;;14.88;29.17;101160.66;10335441;28;20053;-62
2022/03/24 21:52:33;;;;;;;26.73;20.58;;;;;;;14.77;29.27;101167.78;10344056;28;20053;-62
2022/03/24 21:57:34;;;;;;;27.10;21.02;;;;;;;14.61;29.45;101148.59;10335242;28;21038;-63
2022/03/24 22:02:36;;;;;;;27.25;20.88;;;;;;;14.71;30.17;101165.59;10329790;28;20107;-63
2022/03/24 22:07:37;;;;;;;26.73;23.08;;;;;;;14.62;29.94;101171.72;10332984;28;20057;-64
2022/03/24 22:12:39;;;;;;;29.88;22.33;;;;;;;14.50;30.24;101178.91;10320589;28;20057;-63
2022/03/24 22:17:41;;;;;;;33.38;23.15;;;;;;;14.29;30.65;101173.50;10341778;28;20474;-62
2022/03/24 22:22:49;;;;;;;28.10;23.70;;;;;;;14.19;30.99;101185.97;10344263;28;20065;-60
2022/03/24 22:27:50;;;;;;;29.35;21.70;;;;;;;14.10;31.25;101188.38;10341945;28;20084;-61
2022/03/24 22:32:52;;;;;;;30.50;22.92;;;;;;;13.98;31.74;101186.69;10342276;28;20073;-61
2022/03/24 22:37:53;;;;;;;27.48;22.50;;;;;;;13.86;32.17;101167.13;10345428;28;20100;-62
2022/03/24 22:42:55;;;;;;;29.10;22.63;;;;;;;13.82;32.32;101172.84;10345677;28;20119;-64
2022/03/24 22:47:56;;;;;;;28.38;23.42;;;;;;;13.79;33.16;101172.09;10338092;28;23013;-66
2022/03/24 22:53:02;;;;;;;28.83;23.63;;;;;;;13.70;33.26;101170.16;10359067;28;20057;-62